Time;durP1;ratioP1;P1;durP2;ratioP2;P2;SDS_P1;SDS_P2;PMS_P1;PMS_P2;Temp;Humidity;BMP_temperature;BMP_pressure;BME280_temperature;BME280_humidity;BME280_pressure;Samples;Min_cycle;Max_cycle;Signal;HPM_P1;HPM_P2
2022/05/31 00:01:55;;;;;;;4.63;2.80;;;;;;;;;;5055818;28;20199;-69
2022/05/31 00:04:22;;;;;;;5.38;3.40;;;;;;;;;;5055607;28;20445;-69
2022/05/31 00:06:50;;;;;;;3.40;3.10;;;;;;;;;;5055642;28;20202;-69
2022/05/31 00:09:17;;;;;;;4.10;3.50;;;;;;;;;;5055770;28;20221;-70
2022/05/31 00:11:45;;;;;;;4.60;3.03;;;;;;;;;;5055501;28;20672;-70
2022/05/31 00:14:14;;;;;;;3.85;3.42;;;;;;;;;;5055777;28;20202;-70
2022/05/31 00:16:41;;;;;;;3.70;3.40;;;;;;;;;;5055947;28;20225;-69
2022/05/31 00:19:08;;;;;;;3.95;3.33;;;;;;;;;;5055198;28;20209;-69
2022/05/31 00:21:40;;;;;;;4.50;3.53;;;;;;;;;;5055629;28;20194;-70
2022/05/31 00:24:08;;;;;;;5.55;3.42;;;;;;;;;;5055495;28;20199;-69
2022/05/31 00:26:37;;;;;;;8.07;3.97;;;;;;;;;;5055323;28;20198;-69
2022/05/31 00:29:06;;;;;;;4.95;3.30;;;;;;;;;;5055538;28;20228;-68
2022/05/31 00:31:33;;;;;;;4.38;3.67;;;;;;;;;;5055380;28;20197;-68
2022/05/31 00:34:01;;;;;;;3.90;3.60;;;;;;;;;;5055036;28;20206;-67
2022/05/31 00:36:28;;;;;;;5.38;3.75;;;;;;;;;;5055441;28;20222;-69
2022/05/31 00:38:55;;;;;;;4.75;3.63;;;;;;;;;;5055270;28;20197;-69
2022/05/31 00:41:26;;;;;;;5.75;4.25;;;;;;;;;;5055628;28;20225;-70
2022/05/31 00:43:57;;;;;;;4.45;3.75;;;;;;;;;;5054990;28;20630;-68
2022/05/31 00:46:26;;;;;;;5.20;3.92;;;;;;;;;;5055492;28;20196;-69
2022/05/31 00:48:56;;;;;;;5.90;4.18;;;;;;;;;;5055414;28;20609;-68
2022/05/31 00:51:25;;;;;;;4.95;3.38;;;;;;;;;;5054950;28;20222;-69
2022/05/31 00:53:54;;;;;;;5.13;4.00;;;;;;;;;;5054827;28;20194;-69
2022/05/31 00:56:22;;;;;;;4.88;3.80;;;;;;;;;;5054752;28;20198;-68
2022/05/31 00:58:52;;;;;;;4.30;3.90;;;;;;;;;;5054970;28;20198;-69
2022/05/31 01:01:20;;;;;;;6.13;3.95;;;;;;;;;;5055031;28;20565;-70
2022/05/31 01:03:49;;;;;;;3.85;3.55;;;;;;;;;;5054841;28;20201;-70
2022/05/31 01:06:16;;;;;;;4.30;3.92;;;;;;;;;;5054529;28;20205;-70
2022/05/31 01:08:46;;;;;;;4.63;4.15;;;;;;;;;;5054425;28;20199;-70
2022/05/31 01:11:14;;;;;;;5.35;4.65;;;;;;;;;;5054536;28;20209;-69
2022/05/31 01:13:42;;;;;;;8.88;3.83;;;;;;;;;;5054912;28;20248;-69
2022/05/31 01:16:10;;;;;;;6.13;4.90;;;;;;;;;;5054791;28;20281;-69
2022/05/31 01:18:37;;;;;;;4.22;3.90;;;;;;;;;;5054760;28;20203;-69
2022/05/31 01:21:06;;;;;;;6.57;4.82;;;;;;;;;;5054561;28;20195;-69
2022/05/31 01:23:37;;;;;;;7.65;4.47;;;;;;;;;;5054118;28;20289;-69
2022/05/31 01:26:07;;;;;;;3.67;3.38;;;;;;;;;;5054897;28;20197;-69
2022/05/31 01:28:39;;;;;;;5.55;4.75;;;;;;;;;;5054263;28;20288;-69
2022/05/31 01:31:09;;;;;;;10.20;4.78;;;;;;;;;;5054132;28;20186;-69
2022/05/31 01:33:39;;;;;;;9.23;4.75;;;;;;;;;;5054269;28;20198;-69
2022/05/31 01:36:09;;;;;;;4.20;3.85;;;;;;;;;;5054645;28;20227;-70
2022/05/31 01:38:41;;;;;;;5.03;4.45;;;;;;;;;;5054408;28;20187;-68
2022/05/31 01:41:12;;;;;;;8.45;4.60;;;;;;;;;;5054023;28;20183;-69
2022/05/31 01:43:43;;;;;;;6.30;4.68;;;;;;;;;;5054132;28;20197;-68
2022/05/31 01:46:11;;;;;;;6.45;4.93;;;;;;;;;;5054748;28;20545;-68
2022/05/31 01:48:40;;;;;;;5.03;4.50;;;;;;;;;;5053665;28;20202;-67
2022/05/31 01:51:09;;;;;;;5.70;4.25;;;;;;;;;;5053942;28;20198;-69
2022/05/31 01:53:36;;;;;;;4.63;4.22;;;;;;;;;;5053967;28;20205;-69
2022/05/31 01:56:03;;;;;;;7.97;4.93;;;;;;;;;;5053520;28;20197;-68
2022/05/31 01:58:31;;;;;;;7.55;4.78;;;;;;;;;;5053937;28;20194;-68
2022/05/31 02:00:59;;;;;;;8.35;5.22;;;;;;;;;;5053864;28;20233;-68
2022/05/31 02:03:26;;;;;;;7.18;5.15;;;;;;;;;;5053932;28;20202;-68
2022/05/31 02:05:54;;;;;;;7.50;4.32;;;;;;;;;;5053746;28;20205;-69
2022/05/31 02:08:25;;;;;;;6.50;5.00;;;;;;;;;;5053755;28;20404;-69
2022/05/31 02:10:54;;;;;;;9.10;5.72;;;;;;;;;;5053693;28;20225;-69
2022/05/31 02:13:21;;;;;;;5.25;4.75;;;;;;;;;;5053719;28;20200;-69
2022/05/31 02:15:48;;;;;;;6.13;5.55;;;;;;;;;;5053348;28;20230;-69
2022/05/31 02:18:16;;;;;;;15.18;5.90;;;;;;;;;;5053974;28;20197;-69
2022/05/31 02:20:43;;;;;;;7.28;5.10;;;;;;;;;;5053328;28;20210;-69
2022/05/31 02:23:11;;;;;;;6.05;5.43;;;;;;;;;;5053583;28;20560;-69
2022/05/31 02:25:40;;;;;;;6.05;5.45;;;;;;;;;;5053153;28;20206;-69
2022/05/31 02:28:07;;;;;;;6.70;5.82;;;;;;;;;;5053712;28;20208;-69
2022/05/31 02:30:34;;;;;;;5.82;4.88;;;;;;;;;;5053619;28;20221;-69
2022/05/31 02:33:01;;;;;;;6.38;5.68;;;;;;;;;;5053448;28;20199;-69
2022/05/31 02:35:29;;;;;;;6.40;5.53;;;;;;;;;;5053585;28;20233;-69
2022/05/31 02:37:58;;;;;;;5.90;5.18;;;;;;;;;;5053607;28;20190;-69
2022/05/31 02:40:27;;;;;;;8.15;5.15;;;;;;;;;;5053491;28;20602;-69
2022/05/31 02:42:55;;;;;;;6.15;5.50;;;;;;;;;;5053074;28;20653;-69
2022/05/31 02:45:22;;;;;;;6.68;5.63;;;;;;;;;;5052928;28;20295;-70
2022/05/31 02:47:50;;;;;;;7.55;6.75;;;;;;;;;;5053012;28;20237;-70
2022/05/31 02:50:18;;;;;;;8.60;5.97;;;;;;;;;;5053147;28;20254;-70
2022/05/31 02:52:45;;;;;;;7.68;5.90;;;;;;;;;;5052953;28;20652;-69
2022/05/31 02:55:12;;;;;;;6.70;5.85;;;;;;;;;;5053692;28;20233;-68
2022/05/31 02:57:40;;;;;;;15.63;6.45;;;;;;;;;;5053166;28;20281;-68
2022/05/31 03:00:10;;;;;;;6.30;5.70;;;;;;;;;;5052696;28;20670;-67
2022/05/31 03:02:37;;;;;;;7.18;6.13;;;;;;;;;;5052863;28;20186;-68
2022/05/31 03:05:06;;;;;;;11.20;6.60;;;;;;;;;;5052768;28;20201;-68
2022/05/31 03:07:33;;;;;;;10.82;5.97;;;;;;;;;;5053120;28;20205;-68
2022/05/31 03:10:00;;;;;;;6.30;5.70;;;;;;;;;;5052887;28;20222;-69
2022/05/31 03:12:28;;;;;;;7.05;6.18;;;;;;;;;;5053248;28;20200;-69
2022/05/31 03:14:57;;;;;;;7.63;6.80;;;;;;;;;;5052986;28;20206;-68
2022/05/31 03:17:29;;;;;;;5.68;5.18;;;;;;;;;;5052871;28;20284;-68
2022/05/31 03:19:58;;;;;;;8.75;6.18;;;;;;;;;;5052901;28;20595;-68
2022/05/31 03:22:27;;;;;;;8.60;6.47;;;;;;;;;;5052890;28;20284;-68
2022/05/31 03:24:56;;;;;;;10.80;6.80;;;;;;;;;;5053198;28;20195;-67
2022/05/31 03:27:24;;;;;;;10.50;6.30;;;;;;;;;;5053188;28;20201;-68
2022/05/31 03:29:53;;;;;;;7.45;6.75;;;;;;;;;;5052341;28;20217;-70
2022/05/31 03:32:21;;;;;;;8.57;6.75;;;;;;;;;;5052160;28;20656;-68
2022/05/31 03:34:49;;;;;;;6.57;5.90;;;;;;;;;;5052313;28;20662;-68
2022/05/31 03:37:18;;;;;;;9.55;7.10;;;;;;;;;;5053149;28;20248;-68
2022/05/31 03:39:45;;;;;;;7.70;6.90;;;;;;;;;;5053282;28;20204;-68
2022/05/31 03:42:12;;;;;;;8.00;7.18;;;;;;;;;;5052702;28;20563;-68
2022/05/31 03:44:39;;;;;;;7.25;6.45;;;;;;;;;;5052340;28;20193;-68
2022/05/31 03:47:06;;;;;;;7.00;6.30;;;;;;;;;;5052786;28;20201;-69
2022/05/31 03:49:34;;;;;;;7.72;6.80;;;;;;;;;;5052669;28;20202;-67
2022/05/31 03:52:02;;;;;;;7.47;6.75;;;;;;;;;;5052759;28;20207;-68
2022/05/31 03:54:30;;;;;;;10.35;8.10;;;;;;;;;;5056017;28;20210;-70
2022/05/31 03:56:57;;;;;;;10.40;7.43;;;;;;;;;;5056188;28;20199;-69
2022/05/31 03:59:24;;;;;;;14.57;7.70;;;;;;;;;;5055990;28;20613;-68
2022/05/31 04:01:52;;;;;;;7.85;7.00;;;;;;;;;;5054933;28;20291;-68
2022/05/31 04:04:19;;;;;;;10.00;7.55;;;;;;;;;;5055634;28;20202;-68
2022/05/31 04:06:47;;;;;;;8.85;6.82;;;;;;;;;;5055372;28;20221;-69
2022/05/31 04:09:15;;;;;;;8.48;7.60;;;;;;;;;;5055949;28;20618;-68
2022/05/31 04:11:42;;;;;;;7.80;7.10;;;;;;;;;;5055603;28;20298;-69
2022/05/31 04:14:10;;;;;;;10.68;6.80;;;;;;;;;;5055699;28;20627;-69
2022/05/31 04:16:37;;;;;;;7.95;7.15;;;;;;;;;;5055391;28;20674;-69
2022/05/31 04:19:04;;;;;;;11.65;7.10;;;;;;;;;;5055718;28;20288;-68
2022/05/31 04:21:32;;;;;;;9.68;7.28;;;;;;;;;;5055648;28;20286;-69
2022/05/31 04:23:58;;;;;;;7.57;6.88;;;;;;;;;;5055248;28;20201;-69
2022/05/31 04:26:26;;;;;;;10.30;8.63;;;;;;;;;;5055678;28;20598;-69
2022/05/31 04:28:54;;;;;;;9.30;8.40;;;;;;;;;;5055576;28;20198;-69
2022/05/31 04:31:21;;;;;;;8.23;7.43;;;;;;;;;;5055188;28;20477;-68
2022/05/31 04:33:48;;;;;;;7.70;6.68;;;;;;;;;;5055223;28;20209;-69
2022/05/31 04:36:16;;;;;;;10.40;7.30;;;;;;;;;;5055258;28;20236;-69
2022/05/31 04:38:45;;;;;;;9.23;7.00;;;;;;;;;;5055335;28;20251;-69
2022/05/31 04:41:16;;;;;;;11.57;8.00;;;;;;;;;;5055096;28;20228;-69
2022/05/31 04:43:45;;;;;;;8.38;7.38;;;;;;;;;;5055323;28;20199;-69
2022/05/31 04:46:12;;;;;;;8.73;7.28;;;;;;;;;;5054928;28;20198;-69
2022/05/31 04:48:40;;;;;;;9.38;6.80;;;;;;;;;;5054828;28;20205;-69
2022/05/31 04:51:07;;;;;;;6.72;6.05;;;;;;;;;;5055089;28;20227;-68
2022/05/31 04:53:34;;;;;;;11.60;8.07;;;;;;;;;;5054720;28;20199;-69
2022/05/31 04:56:03;;;;;;;7.30;6.20;;;;;;;;;;5055285;28;20202;-69
2022/05/31 04:58:30;;;;;;;6.47;5.80;;;;;;;;;;5054889;28;20449;-69
2022/05/31 05:01:01;;;;;;;9.00;6.23;;;;;;;;;;5054569;28;20449;-69
2022/05/31 05:03:29;;;;;;;14.97;7.10;;;;;;;;;;5054923;28;20492;-69
2022/05/31 05:05:59;;;;;;;7.90;7.10;;;;;;;;;;5054598;28;20452;-70
2022/05/31 05:08:26;;;;;;;8.07;6.03;;;;;;;;;;5054385;28;20795;-69
2022/05/31 05:10:53;;;;;;;11.97;7.00;;;;;;;;;;5052563;28;20469;-69
2022/05/31 05:13:20;;;;;;;10.87;7.37;;;;;;;;;;5053069;28;20437;-69
2022/05/31 05:15:47;;;;;;;8.93;6.40;;;;;;;;;;5053910;28;20931;-67
2022/05/31 05:18:16;;;;;;;9.27;6.80;;;;;;;;;;5054405;28;20783;-67
2022/05/31 05:20:43;;;;;;;7.70;6.10;;;;;;;;;;5054196;28;20532;-67
2022/05/31 05:23:11;;;;;;;8.10;6.23;;;;;;;;;;5054426;28;20457;-67
2022/05/31 05:25:38;;;;;;;10.13;7.13;;;;;;;;;;5054191;28;20452;-67
2022/05/31 05:30:46;;;;;;;10.13;6.17;;;;;;;;;;5053548;28;20864;-68
2022/05/31 05:33:14;;;;;;;11.83;7.37;;;;;;;;;;5053968;28;20972;-67
2022/05/31 05:35:42;;;;;;;9.03;6.73;;;;;;;;;;5053853;28;20839;-67
2022/05/31 05:38:10;;;;;;;10.90;6.37;;;;;;;;;;5054422;28;20516;-68
2022/05/31 05:40:37;;;;;;;7.67;6.73;;;;;;;;;;5054255;28;20445;-67
2022/05/31 05:43:06;;;;;;;9.90;6.23;;;;;;;;;;5054340;28;20438;-67
2022/05/31 05:45:33;;;;;;;7.40;6.63;;;;;;;;;;5053835;28;20452;-67
2022/05/31 05:48:01;;;;;;;11.80;7.40;;;;;;;;;;5054056;28;20443;-67
2022/05/31 05:50:28;;;;;;;9.10;6.60;;;;;;;;;;5054065;28;20491;-67
2022/05/31 05:52:59;;;;;;;7.03;5.80;;;;;;;;;;5054310;28;20445;-67
2022/05/31 05:55:27;;;;;;;9.05;6.65;;;;;;;;;;5053785;28;20433;-68
2022/05/31 05:57:54;;;;;;;8.20;6.37;;;;;;;;;;5053834;28;20195;-67
2022/05/31 06:00:22;;;;;;;6.83;5.97;;;;;;;;;;5053576;28;20465;-68
2022/05/31 06:02:51;;;;;;;11.10;5.63;;;;;;;;;;5053414;28;20441;-67
2022/05/31 06:05:21;;;;;;;7.87;6.63;;;;;;;;;;5054152;28;20453;-67
2022/05/31 06:07:50;;;;;;;9.23;6.50;;;;;;;;;;5053967;28;20513;-67
2022/05/31 06:10:20;;;;;;;8.63;6.43;;;;;;;;;;5053646;28;20807;-67
2022/05/31 06:12:50;;;;;;;8.10;6.20;;;;;;;;;;5053663;28;20438;-67
2022/05/31 06:15:19;;;;;;;7.70;6.97;;;;;;;;;;5052785;28;20433;-67
2022/05/31 06:17:48;;;;;;;10.87;6.23;;;;;;;;;;5053212;28;20953;-67
2022/05/31 06:20:16;;;;;;;15.63;6.60;;;;;;;;;;5053595;28;20453;-68
2022/05/31 06:22:43;;;;;;;10.03;6.73;;;;;;;;;;5053081;28;20448;-67
2022/05/31 06:25:13;;;;;;;10.83;7.00;;;;;;;;;;5053520;28;20441;-67
2022/05/31 06:27:41;;;;;;;9.50;7.03;;;;;;;;;;5053343;28;20445;-67
2022/05/31 06:30:11;;;;;;;7.57;6.90;;;;;;;;;;5053854;28;20445;-67
2022/05/31 06:32:38;;;;;;;10.73;5.87;;;;;;;;;;5053313;28;20449;-67
2022/05/31 06:35:06;;;;;;;6.87;5.43;;;;;;;;;;5053047;28;20459;-67
2022/05/31 06:37:33;;;;;;;13.20;6.60;;;;;;;;;;5053532;28;20513;-67
2022/05/31 06:40:00;;;;;;;13.70;6.93;;;;;;;;;;5053562;28;20850;-67
2022/05/31 06:42:28;;;;;;;7.00;6.00;;;;;;;;;;5053117;28;20791;-68
2022/05/31 06:44:59;;;;;;;7.33;6.13;;;;;;;;;;5053227;28;20453;-67
2022/05/31 06:47:26;;;;;;;8.20;6.50;;;;;;;;;;5053372;28;20457;-67
2022/05/31 06:49:54;;;;;;;8.60;6.53;;;;;;;;;;5053146;28;20869;-68
2022/05/31 06:57:51;;;;;;;8.43;6.10;;;;;;;;;;5053004;28;20406;-67
2022/05/31 07:00:21;;;;;;;12.63;6.17;;;;;;;;;;5052811;28;20451;-67
2022/05/31 07:02:48;;;;;;;7.00;5.77;;;;;;;;;;5052811;28;20437;-68
2022/05/31 07:05:15;;;;;;;11.53;6.40;;;;;;;;;;5052855;28;20449;-67
2022/05/31 07:07:43;;;;;;;9.67;6.07;;;;;;;;;;5052692;28;20437;-68
2022/05/31 07:10:10;;;;;;;7.10;5.70;;;;;;;;;;5052948;28;20449;-68
2022/05/31 07:12:38;;;;;;;7.87;6.40;;;;;;;;;;5052978;28;20478;-68
2022/05/31 07:15:06;;;;;;;6.97;5.53;;;;;;;;;;5052841;28;20503;-68
2022/05/31 07:17:35;;;;;;;13.53;6.20;;;;;;;;;;5053001;28;20438;-67
2022/05/31 07:20:02;;;;;;;8.13;6.50;;;;;;;;;;5052856;28;20488;-68
2022/05/31 07:22:30;;;;;;;6.50;5.80;;;;;;;;;;5052882;28;20454;-67
2022/05/31 07:24:57;;;;;;;8.10;5.97;;;;;;;;;;5052569;28;20964;-67
2022/05/31 07:27:25;;;;;;;8.63;5.60;;;;;;;;;;5053546;28;20817;-68
2022/05/31 07:29:52;;;;;;;9.33;6.03;;;;;;;;;;5056461;28;20446;-67
2022/05/31 07:32:19;;;;;;;8.57;5.53;;;;;;;;;;5056197;28;20478;-67
2022/05/31 07:34:48;;;;;;;11.57;7.27;;;;;;;;;;5056255;28;20930;-68
2022/05/31 07:37:15;;;;;;;7.73;5.43;;;;;;;;;;5056139;28;20469;-67
2022/05/31 07:39:42;;;;;;;9.67;5.90;;;;;;;;;;5056729;28;20580;-67
2022/05/31 07:42:09;;;;;;;5.83;5.43;;;;;;;;;;5056521;28;20936;-68
2022/05/31 07:44:37;;;;;;;7.27;6.40;;;;;;;;;;5055983;28;20468;-67
2022/05/31 07:47:04;;;;;;;8.10;6.80;;;;;;;;;;5056613;28;20570;-68
2022/05/31 07:49:31;;;;;;;7.33;5.57;;;;;;;;;;5055967;28;20448;-67
2022/05/31 07:52:00;;;;;;;9.07;6.43;;;;;;;;;;5056239;28;20483;-67
2022/05/31 07:54:30;;;;;;;7.60;6.00;;;;;;;;;;5055922;28;20437;-67
2022/05/31 07:56:57;;;;;;;7.57;6.43;;;;;;;;;;5055893;28;20979;-67
2022/05/31 07:59:24;;;;;;;8.30;7.50;;;;;;;;;;5056064;28;20449;-69
2022/05/31 08:01:51;;;;;;;7.37;6.37;;;;;;;;;;5055829;28;20949;-68
2022/05/31 08:04:19;;;;;;;8.00;6.57;;;;;;;;;;5055900;28;20807;-67
2022/05/31 08:06:46;;;;;;;7.80;5.77;;;;;;;;;;5055670;28;20478;-67
2022/05/31 08:09:14;;;;;;;13.80;7.10;;;;;;;;;;5055016;28;20438;-68
2022/05/31 08:11:41;;;;;;;8.83;5.70;;;;;;;;;;5055765;28;20830;-68
2022/05/31 08:14:09;;;;;;;10.00;6.50;;;;;;;;;;5055827;28;20536;-68
2022/05/31 08:16:36;;;;;;;10.27;5.90;;;;;;;;;;5055713;28;20441;-68
2022/05/31 08:19:04;;;;;;;9.27;5.63;;;;;;;;;;5055448;28;20463;-67
2022/05/31 08:21:32;;;;;;;6.23;5.50;;;;;;;;;;5055450;28;20951;-69
2022/05/31 08:24:00;;;;;;;12.87;6.30;;;;;;;;;;5055354;28;20926;-67
2022/05/31 08:26:29;;;;;;;9.17;6.50;;;;;;;;;;5055703;28;20446;-67
2022/05/31 08:28:56;;;;;;;7.97;6.70;;;;;;;;;;5055605;28;20444;-68
2022/05/31 08:31:24;;;;;;;14.47;6.60;;;;;;;;;;5055437;28;20481;-68
2022/05/31 08:33:51;;;;;;;9.47;5.77;;;;;;;;;;5055683;28;20453;-68
2022/05/31 08:36:19;;;;;;;12.53;6.50;;;;;;;;;;5055359;28;20564;-68
2022/05/31 08:38:46;;;;;;;7.70;5.87;;;;;;;;;;5054785;28;20942;-68
2022/05/31 08:41:23;;;;;;;6.97;5.50;;;;;;;;;;5055298;28;20876;-68
2022/05/31 08:44:13;;;;;;;9.17;6.33;;;;;;;;;;5055475;28;20429;-68
2022/05/31 08:46:47;;;;;;;10.10;6.13;;;;;;;;;;5055312;28;20430;-68
2022/05/31 08:49:18;;;;;;;12.87;7.13;;;;;;;;;;5055310;28;20513;-68
2022/05/31 08:51:55;;;;;;;7.80;5.67;;;;;;;;;;5056050;28;20539;-68
2022/05/31 08:57:14;;;;;;;8.17;5.77;;;;;;;;;;5055038;28;20399;-69
2022/05/31 08:59:48;;;;;;;12.13;5.40;;;;;;;;;;5054870;28;20442;-68
2022/05/31 09:02:17;;;;;;;6.60;4.97;;;;;;;;;;5055175;28;20441;-68
2022/05/31 09:04:46;;;;;;;11.57;5.73;;;;;;;;;;5054664;28;20455;-67
2022/05/31 09:07:17;;;;;;;7.93;5.57;;;;;;;;;;5054939;28;20442;-67
2022/05/31 09:09:48;;;;;;;5.80;5.23;;;;;;;;;;5054596;28;20860;-67
2022/05/31 09:12:19;;;;;;;8.27;5.83;;;;;;;;;;5055045;28;20467;-69
2022/05/31 09:14:50;;;;;;;7.77;4.90;;;;;;;;;;5054416;28;20443;-67
2022/05/31 09:17:23;;;;;;;8.70;6.10;;;;;;;;;;5054838;28;20436;-68
2022/05/31 09:19:54;;;;;;;6.43;5.83;;;;;;;;;;5055243;28;20431;-67
2022/05/31 09:22:21;;;;;;;8.67;5.43;;;;;;;;;;5054316;28;20443;-67
2022/05/31 09:24:48;;;;;;;10.77;5.90;;;;;;;;;;5054148;28;20447;-67
2022/05/31 09:27:16;;;;;;;11.90;5.60;;;;;;;;;;5054163;28;20484;-68
2022/05/31 09:29:54;;;;;;;9.50;5.33;;;;;;;;;;5054540;28;20446;-68
2022/05/31 09:32:26;;;;;;;6.03;5.30;;;;;;;;;;5054430;28;20494;-68
2022/05/31 09:35:14;;;;;;;5.30;4.80;;;;;;;;;;5054428;28;20460;-68
2022/05/31 09:37:50;;;;;;;7.53;5.37;;;;;;;;;;5049476;28;20452;-68
2022/05/31 09:40:38;;;;;;;7.10;5.00;;;;;;;;;;5054343;28;20423;-67
2022/05/31 09:43:09;;;;;;;11.00;5.60;;;;;;;;;;5050191;28;20450;-68
2022/05/31 09:45:43;;;;;;;10.90;5.67;;;;;;;;;;5053884;28;20433;-68
2022/05/31 09:48:11;;;;;;;8.20;4.43;;;;;;;;;;5054293;28;20435;-68
2022/05/31 09:50:38;;;;;;;13.73;5.20;;;;;;;;;;5053209;28;20531;-67
2022/05/31 09:57:05;;;;;;;10.37;5.80;;;;;;;;;;5054008;28;20532;-67
2022/05/31 09:58:39;;;;;;;6.07;4.53;;;;;;;;;;5053845;28;20449;-68
2022/05/31 10:01:14;;;;;;;7.30;4.70;;;;;;;;;;5053697;28;20537;-68
2022/05/31 10:03:44;;;;;;;9.83;5.57;;;;;;;;;;5054616;28;20433;-68
2022/05/31 10:06:16;;;;;;;9.07;5.20;;;;;;;;;;5054707;28;20451;-68
2022/05/31 10:08:43;;;;;;;5.40;4.90;;;;;;;;;;5053630;28;20433;-68
2022/05/31 10:11:12;;;;;;;8.60;5.13;;;;;;;;;;5053684;28;20440;-68
2022/05/31 10:13:40;;;;;;;5.27;4.77;;;;;;;;;;5053602;28;20487;-67
2022/05/31 10:16:17;;;;;;;8.20;4.93;;;;;;;;;;5053525;28;20530;-68
2022/05/31 10:19:01;;;;;;;6.77;5.57;;;;;;;;;;5054061;28;20440;-68
2022/05/31 10:21:34;;;;;;;13.27;6.03;;;;;;;;;;5053380;28;20510;-68
2022/05/31 10:24:06;;;;;;;15.13;5.17;;;;;;;;;;5053271;28;20451;-68
2022/05/31 10:26:37;;;;;;;10.10;4.33;;;;;;;;;;5053235;28;20910;-67
2022/05/31 10:29:07;;;;;;;5.93;4.50;;;;;;;;;;5053228;28;20517;-68
2022/05/31 10:31:37;;;;;;;5.93;5.30;;;;;;;;;;5053270;28;20438;-68
2022/05/31 10:34:22;;;;;;;7.30;5.47;;;;;;;;;;5053215;28;20458;-67
2022/05/31 10:36:51;;;;;;;8.23;5.20;;;;;;;;;;5052814;28;20573;-67
2022/05/31 10:39:20;;;;;;;6.73;4.90;;;;;;;;;;5053075;28;20453;-68
2022/05/31 10:41:47;;;;;;;8.17;7.27;;;;;;;;;;5052928;28;20485;-67
2022/05/31 10:44:17;;;;;;;14.83;5.83;;;;;;;;;;5053310;28;20437;-68
2022/05/31 10:46:47;;;;;;;7.00;5.37;;;;;;;;;;5053289;28;20441;-68
2022/05/31 10:49:17;;;;;;;6.13;5.50;;;;;;;;;;5053048;28;20451;-68
2022/05/31 10:51:50;;;;;;;7.60;5.50;;;;;;;;;;5052823;28;20636;-68
2022/05/31 10:54:37;;;;;;;9.60;4.80;;;;;;;;;;5052991;28;20430;-68
2022/05/31 10:57:11;;;;;;;7.73;5.90;;;;;;;;;;5053182;28;20514;-68
2022/05/31 10:59:43;;;;;;;11.13;7.23;;;;;;;;;;5053263;28;20435;-67
2022/05/31 11:02:24;;;;;;;6.63;5.93;;;;;;;;;;5055455;28;20426;-66
2022/05/31 11:04:57;;;;;;;7.10;5.30;;;;;;;;;;5057634;28;20466;-67
2022/05/31 11:07:30;;;;;;;9.13;5.70;;;;;;;;;;5056890;28;20422;-67
2022/05/31 11:12:56;;;;;;;7.33;5.27;;;;;;;;;;5056805;28;20453;-68
2022/05/31 11:15:28;;;;;;;6.53;5.93;;;;;;;;;;5057251;28;20431;-67
2022/05/31 11:18:11;;;;;;;4.80;4.27;;;;;;;;;;5056705;28;20887;-68
2022/05/31 11:20:43;;;;;;;5.70;4.80;;;;;;;;;;5057152;28;20904;-68
2022/05/31 11:23:17;;;;;;;6.20;5.20;;;;;;;;;;5056492;28;20467;-68
2022/05/31 11:26:07;;;;;;;5.00;4.60;;;;;;;;;;5056996;28;20772;-68
2022/05/31 11:28:43;;;;;;;6.80;6.20;;;;;;;;;;5052855;28;20561;-68
2022/05/31 11:31:20;;;;;;;13.93;4.93;;;;;;;;;;5057235;28;20433;-68
2022/05/31 11:33:59;;;;;;;10.70;5.50;;;;;;;;;;5056262;28;20465;-68
2022/05/31 11:36:30;;;;;;;8.63;5.70;;;;;;;;;;5056416;28;20482;-68
2022/05/31 11:39:04;;;;;;;10.00;6.60;;;;;;;;;;5056508;28;20534;-69
2022/05/31 11:41:37;;;;;;;8.13;6.20;;;;;;;;;;5056534;28;20438;-71
2022/05/31 11:44:22;;;;;;;8.20;5.77;;;;;;;;;;5054477;28;20494;-70
2022/05/31 11:46:52;;;;;;;6.37;5.77;;;;;;;;;;5056159;28;21007;-77
2022/05/31 11:49:27;;;;;;;14.00;6.37;;;;;;;;;;5056293;28;20443;-69
2022/05/31 11:52:03;;;;;;;5.50;4.70;;;;;;;;;;5056571;28;20437;-68
2022/05/31 11:54:41;;;;;;;7.20;5.80;;;;;;;;;;5056069;28;20463;-69
2022/05/31 11:57:16;;;;;;;5.40;4.53;;;;;;;;;;5054077;28;20442;-69
2022/05/31 11:59:46;;;;;;;6.53;4.60;;;;;;;;;;5055503;28;20511;-68
2022/05/31 12:02:17;;;;;;;6.70;5.27;;;;;;;;;;5056409;28;20450;-69
2022/05/31 12:04:49;;;;;;;8.20;5.67;;;;;;;;;;5056307;28;20806;-69
2022/05/31 12:07:18;;;;;;;6.13;5.50;;;;;;;;;;5055820;28;20480;-69
2022/05/31 12:09:49;;;;;;;5.50;5.00;;;;;;;;;;5055994;28;20537;-69
2022/05/31 12:12:19;;;;;;;8.47;5.90;;;;;;;;;;5055686;28;20486;-69
2022/05/31 12:14:48;;;;;;;4.63;4.23;;;;;;;;;;5055001;28;20497;-69
2022/05/31 12:17:16;;;;;;;5.83;4.90;;;;;;;;;;5055318;28;20461;-69
2022/05/31 12:19:49;;;;;;;4.40;4.00;;;;;;;;;;5055713;28;20911;-70
2022/05/31 12:22:19;;;;;;;6.50;3.83;;;;;;;;;;5055825;28;20461;-69
2022/05/31 12:24:48;;;;;;;7.00;5.47;;;;;;;;;;5055358;28;20442;-69
2022/05/31 12:27:17;;;;;;;5.67;5.03;;;;;;;;;;5055424;28;20453;-69
2022/05/31 12:29:47;;;;;;;5.77;5.30;;;;;;;;;;5055640;28;20912;-70
2022/05/31 12:32:28;;;;;;;5.83;5.33;;;;;;;;;;5055235;28;20791;-70
2022/05/31 12:34:56;;;;;;;5.80;5.20;;;;;;;;;;5055650;28;20440;-70
2022/05/31 12:37:24;;;;;;;8.80;5.80;;;;;;;;;;5055559;28;20471;-69
2022/05/31 12:39:52;;;;;;;6.20;4.90;;;;;;;;;;5055385;28;20528;-70
2022/05/31 12:42:34;;;;;;;7.50;5.40;;;;;;;;;;5055608;28;20476;-70
2022/05/31 12:45:14;;;;;;;5.13;4.63;;;;;;;;;;5053226;28;20455;-69
2022/05/31 12:47:41;;;;;;;5.13;3.83;;;;;;;;;;5055413;28;20472;-68
2022/05/31 12:50:14;;;;;;;5.53;3.83;;;;;;;;;;5055155;28;20801;-68
2022/05/31 12:55:49;;;;;;;4.57;3.50;;;;;;;;;;5054715;28;20403;-69
2022/05/31 12:58:28;;;;;;;5.10;3.90;;;;;;;;;;5039912;28;20539;-67
2022/05/31 13:00:56;;;;;;;4.93;3.43;;;;;;;;;;5055320;28;20430;-67
2022/05/31 13:03:41;;;;;;;7.30;3.63;;;;;;;;;;5054764;28;20543;-69
2022/05/31 13:06:11;;;;;;;3.13;2.93;;;;;;;;;;5054530;28;20810;-68
2022/05/31 13:08:55;;;;;;;3.67;3.37;;;;;;;;;;5055164;28;20520;-69
2022/05/31 13:19:55;;;;;;;3.43;3.23;;;;;;;;;;5054492;28;20909;-68
2022/05/31 13:22:24;;;;;;;4.40;3.67;;;;;;;;;;5054283;28;20444;-68
2022/05/31 13:24:53;;;;;;;6.93;3.37;;;;;;;;;;5053143;28;20444;-68
2022/05/31 13:27:23;;;;;;;5.80;3.60;;;;;;;;;;5054123;28;20447;-68
2022/05/31 13:30:01;;;;;;;4.67;3.80;;;;;;;;;;5054327;28;20445;-68
2022/05/31 13:32:32;;;;;;;4.83;3.60;;;;;;;;;;5054822;28;20425;-68
2022/05/31 13:34:59;;;;;;;6.00;3.67;;;;;;;;;;5054257;28;20456;-68
2022/05/31 13:37:28;;;;;;;6.67;3.53;;;;;;;;;;5054704;28;20469;-68
2022/05/31 13:39:55;;;;;;;3.17;2.97;;;;;;;;;;5053951;28;20444;-68
2022/05/31 13:42:23;;;;;;;3.83;3.47;;;;;;;;;;5054531;28;20437;-68
2022/05/31 13:44:51;;;;;;;5.13;4.30;;;;;;;;;;5053859;28;20449;-69
2022/05/31 13:47:19;;;;;;;5.27;3.17;;;;;;;;;;5053770;28;20444;-68
2022/05/31 13:49:47;;;;;;;3.57;3.27;;;;;;;;;;5053933;28;20447;-69
2022/05/31 13:52:25;;;;;;;5.00;4.50;;;;;;;;;;5053707;28;20452;-68
2022/05/31 13:54:55;;;;;;;4.30;3.90;;;;;;;;;;5053573;28;20444;-68
2022/05/31 13:57:24;;;;;;;3.30;3.10;;;;;;;;;;5053492;28;20535;-68
2022/05/31 13:59:53;;;;;;;4.80;3.10;;;;;;;;;;5053629;28;20444;-68
2022/05/31 14:02:22;;;;;;;3.57;3.17;;;;;;;;;;5053464;28;20439;-68
2022/05/31 14:04:54;;;;;;;3.33;3.03;;;;;;;;;;5053738;28;20446;-68
2022/05/31 14:07:22;;;;;;;4.33;2.60;;;;;;;;;;5053661;28;20625;-67
2022/05/31 14:09:54;;;;;;;13.77;3.67;;;;;;;;;;5053554;28;20452;-68
2022/05/31 14:12:23;;;;;;;3.60;3.40;;;;;;;;;;5053736;28;20426;-67
2022/05/31 14:14:52;;;;;;;3.73;3.43;;;;;;;;;;5053205;28;20984;-68
2022/05/31 14:17:32;;;;;;;4.67;3.63;;;;;;;;;;5053204;28;20442;-67
2022/05/31 14:19:59;;;;;;;6.37;4.33;;;;;;;;;;5053526;28;20434;-67
2022/05/31 14:22:28;;;;;;;3.70;2.97;;;;;;;;;;5053450;28;20540;-67
2022/05/31 14:24:56;;;;;;;4.43;3.33;;;;;;;;;;5053731;28;20536;-67
2022/05/31 14:27:27;;;;;;;4.30;3.40;;;;;;;;;;5053068;28;20446;-68
2022/05/31 14:30:01;;;;;;;3.60;3.23;;;;;;;;;;5052988;28;20433;-68
2022/05/31 14:32:31;;;;;;;6.17;3.13;;;;;;;;;;5053936;28;20914;-67
2022/05/31 14:34:58;;;;;;;4.43;4.03;;;;;;;;;;5053049;28;20516;-67
2022/05/31 14:37:38;;;;;;;6.10;3.10;;;;;;;;;;5053214;28;20563;-68
2022/05/31 14:40:07;;;;;;;4.23;3.73;;;;;;;;;;5053400;28;20783;-67
2022/05/31 14:42:39;;;;;;;4.03;3.60;;;;;;;;;;5053573;28;20612;-68
2022/05/31 14:45:08;;;;;;;7.37;3.97;;;;;;;;;;5052909;28;20436;-67
2022/05/31 14:47:36;;;;;;;3.50;3.20;;;;;;;;;;5052806;28;20445;-68
2022/05/31 14:50:10;;;;;;;4.37;3.37;;;;;;;;;;5052574;28;20448;-67
2022/05/31 14:52:43;;;;;;;3.57;3.30;;;;;;;;;;5052538;28;20432;-67
2022/05/31 14:55:12;;;;;;;3.87;3.50;;;;;;;;;;5053014;28;20527;-67
2022/05/31 15:00:21;;;;;;;3.97;3.57;;;;;;;;;;5008839;28;20923;-67
2022/05/31 15:02:49;;;;;;;3.90;3.47;;;;;;;;;;5052574;28;20494;-67
2022/05/31 15:05:23;;;;;;;6.93;3.40;;;;;;;;;;5052560;28;20462;-67
2022/05/31 15:07:51;;;;;;;7.80;4.80;;;;;;;;;;5052492;28;20442;-68
2022/05/31 15:10:25;;;;;;;3.83;3.40;;;;;;;;;;5052474;28;20922;-67
2022/05/31 15:21:17;;;;;;;3.47;3.10;;;;;;;;;;5052766;28;20458;-68
2022/05/31 15:23:44;;;;;;;4.33;4.00;;;;;;;;;;5053227;28;20475;-68
2022/05/31 15:26:12;;;;;;;3.70;3.50;;;;;;;;;;5052051;28;20438;-68
2022/05/31 15:28:40;;;;;;;4.43;3.33;;;;;;;;;;5052433;28;20474;-68
2022/05/31 15:31:09;;;;;;;7.03;3.70;;;;;;;;;;5052295;28;20450;-67
2022/05/31 15:33:37;;;;;;;3.73;3.43;;;;;;;;;;5052274;28;20490;-67
2022/05/31 15:36:04;;;;;;;4.60;3.10;;;;;;;;;;5052338;28;20531;-67